sensor_id;sensor_type;location;lat;lon;timestamp;pressure;altitude;pressure_sealevel;temperature;humidity
33191;BME280;19554;42.652;23.364;2023-02-19T00:00:30;94892.31;;;9.21;46.72
33191;BME280;19554;42.652;23.364;2023-02-19T00:02:56;94922.94;;;9.23;46.82
33191;BME280;19554;42.652;23.364;2023-02-19T00:05:22;94905.34;;;9.22;46.85
33191;BME280;19554;42.652;23.364;2023-02-19T00:07:48;94897.38;;;9.17;46.86
33191;BME280;19554;42.652;23.364;2023-02-19T00:10:13;94912.78;;;9.25;46.88
33191;BME280;19554;42.652;23.364;2023-02-19T00:12:39;94912.28;;;9.23;46.76
33191;BME280;19554;42.652;23.364;2023-02-19T00:15:04;94894.19;;;9.20;47.14
33191;BME280;19554;42.652;23.364;2023-02-19T00:17:30;94902.13;;;9.31;47.03
33191;BME280;19554;42.652;23.364;2023-02-19T00:19:55;94853.22;;;9.06;46.87
33191;BME280;19554;42.652;23.364;2023-02-19T00:22:21;94789.44;;;8.70;46.66
33191;BME280;19554;42.652;23.364;2023-02-19T00:24:47;94905.84;;;9.30;46.99
33191;BME280;19554;42.652;23.364;2023-02-19T00:27:13;94891.47;;;9.25;46.83
33191;BME280;19554;42.652;23.364;2023-02-19T00:29:38;94887.78;;;9.21;47.05
33191;BME280;19554;42.652;23.364;2023-02-19T00:32:03;94886.75;;;9.07;47.15
33191;BME280;19554;42.652;23.364;2023-02-19T00:34:29;94887.84;;;9.06;47.40
33191;BME280;19554;42.652;23.364;2023-02-19T00:36:54;94872.41;;;9.03;47.29
33191;BME280;19554;42.652;23.364;2023-02-19T00:39:20;94885.97;;;9.07;47.16
33191;BME280;19554;42.652;23.364;2023-02-19T00:41:45;94870.03;;;8.86;47.31
33191;BME280;19554;42.652;23.364;2023-02-19T00:44:11;94866.06;;;8.84;47.60
33191;BME280;19554;42.652;23.364;2023-02-19T00:46:39;94874.00;;;8.89;47.85
33191;BME280;19554;42.652;23.364;2023-02-19T00:49:06;94871.94;;;8.70;48.25
33191;BME280;19554;42.652;23.364;2023-02-19T00:51:35;94875.09;;;8.77;48.28
33191;BME280;19554;42.652;23.364;2023-02-19T00:54:01;94867.66;;;8.74;48.30
33191;BME280;19554;42.652;23.364;2023-02-19T00:56:27;94866.06;;;8.84;48.20
33191;BME280;19554;42.652;23.364;2023-02-19T00:58:52;94866.56;;;8.91;48.06
33191;BME280;19554;42.652;23.364;2023-02-19T01:01:19;94760.25;;;8.24;47.93
33191;BME280;19554;42.652;23.364;2023-02-19T01:03:45;94859.13;;;8.83;47.59
33191;BME280;19554;42.652;23.364;2023-02-19T01:06:14;94865.03;;;8.69;47.85
33191;BME280;19554;42.652;23.364;2023-02-19T01:08:40;94878.31;;;8.54;48.44
33191;BME280;19554;42.652;23.364;2023-02-19T01:11:06;94866.63;;;8.29;48.72
33191;BME280;19554;42.652;23.364;2023-02-19T01:13:32;94816.09;;;7.89;49.16
33191;BME280;19554;42.652;23.364;2023-02-19T01:16:13;94865.56;;;8.25;49.56
33191;BME280;19554;42.652;23.364;2023-02-19T01:18:39;94833.91;;;8.08;49.60
33191;BME280;19554;42.652;23.364;2023-02-19T01:21:27;94866.06;;;8.12;50.06
33191;BME280;19554;42.652;23.364;2023-02-19T01:23:53;94805.19;;;7.85;50.37
33191;BME280;19554;42.652;23.364;2023-02-19T01:26:24;94858.66;;;8.24;49.92
33191;BME280;19554;42.652;23.364;2023-02-19T01:28:50;94868.75;;;8.27;49.96
33191;BME280;19554;42.652;23.364;2023-02-19T01:31:18;94873.00;;;8.34;49.43
33191;BME280;19554;42.652;23.364;2023-02-19T01:34:09;94881.25;;;8.22;50.06
33191;BME280;19554;42.652;23.364;2023-02-19T01:36:33;94843.75;;;7.98;49.95
33191;BME280;19554;42.652;23.364;2023-02-19T01:39:00;94869.28;;;8.19;49.93
33191;BME280;19554;42.652;23.364;2023-02-19T01:41:29;94885.25;;;8.40;49.70
33191;BME280;19554;42.652;23.364;2023-02-19T01:46:35;94889.50;;;8.51;49.24
33191;BME280;19554;42.652;23.364;2023-02-19T01:49:05;94919.31;;;8.53;49.22
33191;BME280;19554;42.652;23.364;2023-02-19T01:51:35;94852.78;;;8.02;49.17
33191;BME280;19554;42.652;23.364;2023-02-19T01:54:04;94918.78;;;8.46;49.26
33191;BME280;19554;42.652;23.364;2023-02-19T01:56:32;94909.19;;;8.50;49.43
33191;BME280;19554;42.652;23.364;2023-02-19T01:58:59;94922.25;;;8.51;48.99
33191;BME280;19554;42.652;23.364;2023-02-19T02:01:25;94909.72;;;8.47;49.10
33191;BME280;19554;42.652;23.364;2023-02-19T02:03:51;94900.38;;;8.34;49.02
33191;BME280;19554;42.652;23.364;2023-02-19T02:06:22;94907.56;;;8.08;49.58
33191;BME280;19554;42.652;23.364;2023-02-19T02:08:54;94907.00;;;7.91;50.03
33191;BME280;19554;42.652;23.364;2023-02-19T02:11:40;94897.94;;;7.81;50.49
33191;BME280;19554;42.652;23.364;2023-02-19T02:14:06;94806.81;;;6.82;51.39
33191;BME280;19554;42.652;23.364;2023-02-19T02:22:06;94816.84;;;6.75;52.30
33191;BME280;19554;42.652;23.364;2023-02-19T02:27:34;94913.25;;;7.49;51.75
33191;BME280;19554;42.652;23.364;2023-02-19T02:36:04;94909.50;;;7.45;51.93
33191;BME280;19554;42.652;23.364;2023-02-19T02:38:33;94845.56;;;6.94;52.31
33191;BME280;19554;42.652;23.364;2023-02-19T02:40:59;94913.69;;;7.30;52.63
33191;BME280;19554;42.652;23.364;2023-02-19T02:43:25;94912.94;;;7.40;52.35
33191;BME280;19554;42.652;23.364;2023-02-19T02:45:51;94908.47;;;7.51;52.22
33191;BME280;19554;42.652;23.364;2023-02-19T02:48:37;94878.94;;;7.37;51.90
33191;BME280;19554;42.652;23.364;2023-02-19T02:56:27;94897.41;;;7.84;51.43
33191;BME280;19554;42.652;23.364;2023-02-19T02:58:55;94887.31;;;7.92;51.17
33191;BME280;19554;42.652;23.364;2023-02-19T03:01:26;94895.34;;;8.07;50.68
33191;BME280;19554;42.652;23.364;2023-02-19T03:04:29;94875.13;;;8.11;50.18
33191;BME280;19554;42.652;23.364;2023-02-19T03:06:59;94898.53;;;8.24;50.00
33191;BME280;19554;42.652;23.364;2023-02-19T03:09:36;94910.22;;;8.23;50.16
33191;BME280;19554;42.652;23.364;2023-02-19T03:12:06;94892.69;;;8.17;50.23
33191;BME280;19554;42.652;23.364;2023-02-19T03:14:53;94914.72;;;8.02;50.67
33191;BME280;19554;42.652;23.364;2023-02-19T03:17:50;94899.22;;;7.64;51.35
33191;BME280;19554;42.652;23.364;2023-02-19T03:20:38;94918.34;;;7.60;51.93
33191;BME280;19554;42.652;23.364;2023-02-19T03:23:08;94927.00;;;7.35;52.58
33191;BME280;19554;42.652;23.364;2023-02-19T03:25:36;94933.25;;;7.09;53.47
33191;BME280;19554;42.652;23.364;2023-02-19T03:28:23;94923.19;;;7.16;53.22
33191;BME280;19554;42.652;23.364;2023-02-19T03:31:13;94936.44;;;7.11;53.11
33191;BME280;19554;42.652;23.364;2023-02-19T03:33:41;94829.44;;;6.53;53.15
33191;BME280;19554;42.652;23.364;2023-02-19T03:36:09;94941.84;;;7.31;52.66
33191;BME280;19554;42.652;23.364;2023-02-19T03:39:25;94956.75;;;7.38;52.45
33191;BME280;19554;42.652;23.364;2023-02-19T03:42:04;94954.38;;;7.36;52.26
33191;BME280;19554;42.652;23.364;2023-02-19T03:47:08;94958.31;;;7.33;52.59
33191;BME280;19554;42.652;23.364;2023-02-19T03:49:41;94967.88;;;7.34;52.53
33191;BME280;19554;42.652;23.364;2023-02-19T03:52:31;94961.03;;;7.44;52.59
33191;BME280;19554;42.652;23.364;2023-02-19T03:55:17;94847.84;;;6.70;52.25
33191;BME280;19554;42.652;23.364;2023-02-19T03:58:08;94967.94;;;7.45;52.18
33191;BME280;19554;42.652;23.364;2023-02-19T04:00:47;94969.56;;;7.46;52.05
33191;BME280;19554;42.652;23.364;2023-02-19T04:03:28;94963.72;;;7.49;52.03
33191;BME280;19554;42.652;23.364;2023-02-19T04:06:00;94969.56;;;7.51;52.19
33191;BME280;19554;42.652;23.364;2023-02-19T04:08:27;94977.28;;;7.57;51.94
33191;BME280;19554;42.652;23.364;2023-02-19T04:10:54;94973.34;;;7.65;51.83
33191;BME280;19554;42.652;23.364;2023-02-19T04:13:34;94972.81;;;7.68;51.44
33191;BME280;19554;42.652;23.364;2023-02-19T04:16:06;94981.84;;;7.67;51.53
33191;BME280;19554;42.652;23.364;2023-02-19T04:18:36;94929.63;;;7.30;51.45
33191;BME280;19554;42.652;23.364;2023-02-19T04:21:04;94954.91;;;7.43;51.54
33191;BME280;19554;42.652;23.364;2023-02-19T04:23:34;94964.25;;;7.46;51.53
33191;BME280;19554;42.652;23.364;2023-02-19T04:26:02;94974.84;;;7.46;51.56
33191;BME280;19554;42.652;23.364;2023-02-19T04:28:28;94858.66;;;6.58;52.27
33191;BME280;19554;42.652;23.364;2023-02-19T04:30:54;94989.69;;;7.36;52.51
33191;BME280;19554;42.652;23.364;2023-02-19T04:33:19;94981.19;;;7.40;52.36
33191;BME280;19554;42.652;23.364;2023-02-19T04:35:45;94985.94;;;7.38;52.41
33191;BME280;19554;42.652;23.364;2023-02-19T04:38:10;94989.16;;;7.40;52.54
33191;BME280;19554;42.652;23.364;2023-02-19T04:40:37;94976.91;;;7.28;52.58
33191;BME280;19554;42.652;23.364;2023-02-19T04:43:03;94979.06;;;7.42;52.23
33191;BME280;19554;42.652;23.364;2023-02-19T04:45:28;94989.97;;;7.45;52.06
33191;BME280;19554;42.652;23.364;2023-02-19T04:47:53;94987.59;;;7.44;52.14
33191;BME280;19554;42.652;23.364;2023-02-19T04:50:19;94982.50;;;7.37;52.52
33191;BME280;19554;42.652;23.364;2023-02-19T04:52:44;94969.22;;;7.32;52.21
33191;BME280;19554;42.652;23.364;2023-02-19T04:55:09;94979.06;;;7.42;51.90
33191;BME280;19554;42.652;23.364;2023-02-19T04:57:35;94984.66;;;7.45;51.94
33191;BME280;19554;42.652;23.364;2023-02-19T05:00:00;94992.38;;;7.47;51.77
33191;BME280;19554;42.652;23.364;2023-02-19T05:02:26;94996.34;;;7.44;51.75
33191;BME280;19554;42.652;23.364;2023-02-19T05:04:51;95000.31;;;7.42;52.07
33191;BME280;19554;42.652;23.364;2023-02-19T05:07:18;95002.44;;;7.45;51.97
33191;BME280;19554;42.652;23.364;2023-02-19T05:09:43;94989.19;;;7.45;51.92
33191;BME280;19554;42.652;23.364;2023-02-19T05:12:08;94968.44;;;7.36;52.41
33191;BME280;19554;42.652;23.364;2023-02-19T05:14:34;94993.75;;;7.54;51.91
33191;BME280;19554;42.652;23.364;2023-02-19T05:16:59;94897.84;;;6.93;51.77
33191;BME280;19554;42.652;23.364;2023-02-19T05:19:24;95007.34;;;7.63;52.17
33191;BME280;19554;42.652;23.364;2023-02-19T05:21:50;94983.94;;;7.60;52.15
33191;BME280;19554;42.652;23.364;2023-02-19T05:24:15;95006.84;;;7.71;51.95
33191;BME280;19554;42.652;23.364;2023-02-19T05:26:40;94984.75;;;7.60;51.81
33191;BME280;19554;42.652;23.364;2023-02-19T05:29:06;94999.94;;;7.70;51.67
33191;BME280;19554;42.652;23.364;2023-02-19T05:31:31;95010.06;;;7.78;51.65
33191;BME280;19554;42.652;23.364;2023-02-19T05:34:00;94901.41;;;7.14;51.59
33191;BME280;19554;42.652;23.364;2023-02-19T05:36:25;95006.34;;;7.79;51.14
33191;BME280;19554;42.652;23.364;2023-02-19T05:38:52;95025.78;;;7.90;51.41
33191;BME280;19554;42.652;23.364;2023-02-19T05:41:21;95026.06;;;7.99;51.48
33191;BME280;19554;42.652;23.364;2023-02-19T05:43:47;95013.84;;;8.03;50.67
33191;BME280;19554;42.652;23.364;2023-02-19T05:46:15;95024.81;;;8.22;50.51
33191;BME280;19554;42.652;23.364;2023-02-19T05:48:41;94979.56;;;8.06;50.26
33191;BME280;19554;42.652;23.364;2023-02-19T05:51:10;94983.59;;;8.19;50.10
33191;BME280;19554;42.652;23.364;2023-02-19T05:53:36;95023.06;;;8.53;49.87
33191;BME280;19554;42.652;23.364;2023-02-19T05:56:02;94995.38;;;8.49;49.54
33191;BME280;19554;42.652;23.364;2023-02-19T05:58:28;94969.56;;;8.44;49.31
33191;BME280;19554;42.652;23.364;2023-02-19T06:00:54;95027.34;;;8.95;49.02
33191;BME280;19554;42.652;23.364;2023-02-19T06:03:20;95030.53;;;9.17;48.51
33191;BME280;19554;42.652;23.364;2023-02-19T06:05:45;95035.59;;;9.09;48.03
33191;BME280;19554;42.652;23.364;2023-02-19T06:08:12;95037.97;;;9.15;48.30
33191;BME280;19554;42.652;23.364;2023-02-19T06:10:39;95044.91;;;9.27;48.41
33191;BME280;19554;42.652;23.364;2023-02-19T06:13:06;95049.16;;;9.28;48.07
33191;BME280;19554;42.652;23.364;2023-02-19T06:15:32;95054.22;;;9.29;47.92
33191;BME280;19554;42.652;23.364;2023-02-19T06:17:57;95052.09;;;9.00;48.79
33191;BME280;19554;42.652;23.364;2023-02-19T06:20:23;95052.38;;;9.04;48.92
33191;BME280;19554;42.652;23.364;2023-02-19T06:22:49;95050.78;;;9.08;48.86
33191;BME280;19554;42.652;23.364;2023-02-19T06:25:14;95052.38;;;9.04;49.10
33191;BME280;19554;42.652;23.364;2023-02-19T06:27:40;95056.63;;;9.00;49.22
33191;BME280;19554;42.652;23.364;2023-02-19T06:30:06;95000.19;;;8.67;49.03
33191;BME280;19554;42.652;23.364;2023-02-19T06:32:31;95046.53;;;8.97;49.20
33191;BME280;19554;42.652;23.364;2023-02-19T06:34:56;95049.16;;;9.12;49.14
33191;BME280;19554;42.652;23.364;2023-02-19T06:37:22;95045.44;;;9.08;49.35
33191;BME280;19554;42.652;23.364;2023-02-19T06:39:47;95031.63;;;8.96;49.40
33191;BME280;19554;42.652;23.364;2023-02-19T06:42:12;95045.19;;;9.20;49.21
33191;BME280;19554;42.652;23.364;2023-02-19T06:44:38;95035.59;;;9.19;49.19
33191;BME280;19554;42.652;23.364;2023-02-19T06:47:03;95050.22;;;9.37;49.02
33191;BME280;19554;42.652;23.364;2023-02-19T06:49:29;95054.97;;;9.50;48.82
33191;BME280;19554;42.652;23.364;2023-02-19T06:51:54;95048.03;;;9.59;48.84
33191;BME280;19554;42.652;23.364;2023-02-19T06:54:19;95032.59;;;9.61;48.56
33191;BME280;19554;42.652;23.364;2023-02-19T06:56:45;95050.06;;;9.98;48.20
33191;BME280;19554;42.652;23.364;2023-02-19T06:59:12;95065.19;;;10.18;47.77
33191;BME280;19554;42.652;23.364;2023-02-19T07:01:39;95060.59;;;10.39;47.51
33191;BME280;19554;42.652;23.364;2023-02-19T07:04:05;95059.69;;;10.59;46.82
33191;BME280;19554;42.652;23.364;2023-02-19T07:06:32;94918.22;;;9.75;46.62
33191;BME280;19554;42.652;23.364;2023-02-19T07:08:58;94972.34;;;10.30;46.00
33191;BME280;19554;42.652;23.364;2023-02-19T07:11:24;95062.31;;;11.03;45.60
33191;BME280;19554;42.652;23.364;2023-02-19T07:13:55;95063.88;;;11.09;45.17
33191;BME280;19554;42.652;23.364;2023-02-19T07:16:20;95064.59;;;11.20;44.80
33191;BME280;19554;42.652;23.364;2023-02-19T07:18:46;95062.13;;;11.29;44.62
33191;BME280;19554;42.652;23.364;2023-02-19T07:21:13;95059.31;;;11.44;44.45
33191;BME280;19554;42.652;23.364;2023-02-19T07:23:39;95051.16;;;11.59;43.58
33191;BME280;19554;42.652;23.364;2023-02-19T07:26:11;95047.19;;;11.81;44.50
33191;BME280;19554;42.652;23.364;2023-02-19T07:28:37;95015.56;;;11.88;43.37
33191;BME280;19554;42.652;23.364;2023-02-19T07:31:03;94972.88;;;11.78;42.36
33191;BME280;19554;42.652;23.364;2023-02-19T07:33:29;95030.44;;;12.42;42.81
33191;BME280;19554;42.652;23.364;2023-02-19T07:35:54;95017.34;;;12.60;41.47
33191;BME280;19554;42.652;23.364;2023-02-19T07:38:23;95027.88;;;12.89;41.02
33191;BME280;19554;42.652;23.364;2023-02-19T07:40:53;95024.38;;;13.07;40.47
33191;BME280;19554;42.652;23.364;2023-02-19T07:43:19;95023.31;;;13.27;40.54
33191;BME280;19554;42.652;23.364;2023-02-19T07:45:44;95019.16;;;13.48;40.60
33191;BME280;19554;42.652;23.364;2023-02-19T07:48:11;95033.50;;;13.71;39.72
33191;BME280;19554;42.652;23.364;2023-02-19T07:50:36;95036.69;;;13.87;39.71
33191;BME280;19554;42.652;23.364;2023-02-19T07:53:02;95026.75;;;14.02;39.01
33191;BME280;19554;42.652;23.364;2023-02-19T07:55:27;95032.94;;;14.16;38.85
33191;BME280;19554;42.652;23.364;2023-02-19T07:57:53;95024.75;;;14.21;38.30
33191;BME280;19554;42.652;23.364;2023-02-19T08:00:18;95030.72;;;14.18;38.34
33191;BME280;19554;42.652;23.364;2023-02-19T08:02:44;94927.69;;;13.64;38.31
33191;BME280;19554;42.652;23.364;2023-02-19T08:05:30;95024.16;;;14.24;37.83
33191;BME280;19554;42.652;23.364;2023-02-19T08:07:56;95026.75;;;14.29;37.98
33191;BME280;19554;42.652;23.364;2023-02-19T08:10:21;95024.75;;;14.35;37.63
33191;BME280;19554;42.652;23.364;2023-02-19T08:13:10;95022.94;;;14.58;38.06
33191;BME280;19554;42.652;23.364;2023-02-19T08:18:30;95012.50;;;14.92;36.85
33191;BME280;19554;42.652;23.364;2023-02-19T08:20:57;95018.09;;;14.82;36.90
33191;BME280;19554;42.652;23.364;2023-02-19T08:23:23;95016.34;;;14.78;36.67
33191;BME280;19554;42.652;23.364;2023-02-19T08:25:50;95021.63;;;14.69;37.28
33191;BME280;19554;42.652;23.364;2023-02-19T08:28:17;95022.72;;;14.68;37.52
33191;BME280;19554;42.652;23.364;2023-02-19T08:30:43;94995.72;;;14.51;37.12
33191;BME280;19554;42.652;23.364;2023-02-19T08:33:11;95015.59;;;14.50;37.11
33191;BME280;19554;42.652;23.364;2023-02-19T08:35:37;95017.78;;;14.48;37.31
33191;BME280;19554;42.652;23.364;2023-02-19T08:38:04;95019.94;;;14.45;37.51
33191;BME280;19554;42.652;23.364;2023-02-19T08:40:31;95015.00;;;14.53;37.46
33191;BME280;19554;42.652;23.364;2023-02-19T08:43:08;94984.97;;;14.51;37.05
33191;BME280;19554;42.652;23.364;2023-02-19T08:45:36;95013.31;;;14.57;37.26
33191;BME280;19554;42.652;23.364;2023-02-19T08:48:01;94999.31;;;14.05;37.96
33191;BME280;19554;42.652;23.364;2023-02-19T08:50:27;94999.13;;;13.73;38.69
33191;BME280;19554;42.652;23.364;2023-02-19T08:52:52;95005.91;;;13.85;38.79
33191;BME280;19554;42.652;23.364;2023-02-19T08:55:18;94993.75;;;14.15;38.52
33191;BME280;19554;42.652;23.364;2023-02-19T08:57:43;94981.13;;;14.15;38.35
33191;BME280;19554;42.652;23.364;2023-02-19T09:00:09;94970.06;;;14.31;38.27
33191;BME280;19554;42.652;23.364;2023-02-19T09:02:35;94979.44;;;14.19;38.28
33191;BME280;19554;42.652;23.364;2023-02-19T09:05:00;94958.03;;;14.28;38.91
33191;BME280;19554;42.652;23.364;2023-02-19T09:07:26;94972.03;;;14.75;37.99
33191;BME280;19554;42.652;23.364;2023-02-19T09:09:52;94950.66;;;14.92;37.51
33191;BME280;19554;42.652;23.364;2023-02-19T09:12:17;94908.88;;;14.86;37.27
33191;BME280;19554;42.652;23.364;2023-02-19T09:14:43;94964.91;;;15.47;37.40
33191;BME280;19554;42.652;23.364;2023-02-19T09:17:08;94954.13;;;15.69;36.90
33191;BME280;19554;42.652;23.364;2023-02-19T09:19:34;94954.97;;;15.87;36.30
33191;BME280;19554;42.652;23.364;2023-02-19T09:22:00;94947.19;;;15.85;36.61
33191;BME280;19554;42.652;23.364;2023-02-19T09:24:25;94942.75;;;15.90;36.42
33191;BME280;19554;42.652;23.364;2023-02-19T09:26:52;94930.72;;;15.78;36.07
33191;BME280;19554;42.652;23.364;2023-02-19T09:29:19;94951.31;;;15.83;36.16
33191;BME280;19554;42.652;23.364;2023-02-19T09:31:44;94958.28;;;15.93;36.12
33191;BME280;19554;42.652;23.364;2023-02-19T09:34:10;94939.31;;;15.98;36.30
33191;BME280;19554;42.652;23.364;2023-02-19T09:36:36;94945.81;;;15.97;36.03
33191;BME280;19554;42.652;23.364;2023-02-19T09:39:03;94950.75;;;16.03;35.91
33191;BME280;19554;42.652;23.364;2023-02-19T09:41:33;94945.50;;;15.98;35.62
33191;BME280;19554;42.652;23.364;2023-02-19T09:44:02;94944.03;;;15.92;35.70
33191;BME280;19554;42.652;23.364;2023-02-19T09:46:29;94944.31;;;15.73;36.27
33191;BME280;19554;42.652;23.364;2023-02-19T09:49:10;94950.38;;;15.87;36.07
33191;BME280;19554;42.652;23.364;2023-02-19T09:51:38;94944.03;;;15.92;35.92
33191;BME280;19554;42.652;23.364;2023-02-19T09:54:08;94866.81;;;15.53;35.84
33191;BME280;19554;42.652;23.364;2023-02-19T09:56:36;94931.88;;;15.95;36.01
33191;BME280;19554;42.652;23.364;2023-02-19T09:59:02;94923.13;;;15.89;35.80
33191;BME280;19554;42.652;23.364;2023-02-19T10:01:31;94848.31;;;15.60;35.99
33191;BME280;19554;42.652;23.364;2023-02-19T10:04:00;94883.44;;;16.03;36.08
33191;BME280;19554;42.652;23.364;2023-02-19T10:06:26;94892.47;;;16.33;36.05
33191;BME280;19554;42.652;23.364;2023-02-19T10:09:29;94901.66;;;16.32;34.85
33191;BME280;19554;42.652;23.364;2023-02-19T10:11:57;94869.16;;;16.20;35.04
33191;BME280;19554;42.652;23.364;2023-02-19T10:14:35;94888.66;;;16.43;34.58
33191;BME280;19554;42.652;23.364;2023-02-19T10:17:05;94879.16;;;16.46;34.55
33191;BME280;19554;42.652;23.364;2023-02-19T10:19:32;94853.00;;;16.20;34.23
33191;BME280;19554;42.652;23.364;2023-02-19T10:21:59;94870.78;;;16.39;34.50
33191;BME280;19554;42.652;23.364;2023-02-19T10:24:28;94865.84;;;16.41;34.41
33191;BME280;19554;42.652;23.364;2023-02-19T10:26:55;94862.06;;;16.42;34.17
33191;BME280;19554;42.652;23.364;2023-02-19T10:29:20;94856.19;;;16.40;34.50
33191;BME280;19554;42.652;23.364;2023-02-19T10:31:48;94788.84;;;15.70;34.44
33191;BME280;19554;42.652;23.364;2023-02-19T10:34:21;94849.34;;;15.81;34.78
33191;BME280;19554;42.652;23.364;2023-02-19T10:36:51;94849.56;;;15.54;35.20
33191;BME280;19554;42.652;23.364;2023-02-19T10:41:50;94796.69;;;15.40;35.93
33191;BME280;19554;42.652;23.364;2023-02-19T10:44:27;94837.47;;;15.82;35.27
33191;BME280;19554;42.652;23.364;2023-02-19T10:46:54;94825.94;;;15.91;34.91
33191;BME280;19554;42.652;23.364;2023-02-19T10:49:41;94818.00;;;15.94;34.78
33191;BME280;19554;42.652;23.364;2023-02-19T10:52:29;94825.28;;;15.94;34.72
33191;BME280;19554;42.652;23.364;2023-02-19T10:57:48;94785.22;;;15.75;34.92
33191;BME280;19554;42.652;23.364;2023-02-19T11:02:41;94805.47;;;15.90;34.71
33191;BME280;19554;42.652;23.364;2023-02-19T11:07:48;94793.00;;;15.76;34.81
33191;BME280;19554;42.652;23.364;2023-02-19T11:10:28;94784.69;;;15.64;35.15
33191;BME280;19554;42.652;23.364;2023-02-19T11:13:05;94776.53;;;15.69;35.26
33191;BME280;19554;42.652;23.364;2023-02-19T11:15:35;94700.63;;;15.24;35.23
33191;BME280;19554;42.652;23.364;2023-02-19T11:23:17;94753.41;;;15.85;34.65
33191;BME280;19554;42.652;23.364;2023-02-19T11:25:45;94750.38;;;15.96;34.80
33191;BME280;19554;42.652;23.364;2023-02-19T11:31:30;94757.50;;;15.92;34.25
33191;BME280;19554;42.652;23.364;2023-02-19T11:36:45;94730.28;;;15.67;34.64
33191;BME280;19554;42.652;23.364;2023-02-19T11:50:20;94718.00;;;16.30;33.79
33191;BME280;19554;42.652;23.364;2023-02-19T11:52:59;94703.78;;;16.21;33.66
33191;BME280;19554;42.652;23.364;2023-02-19T12:03:35;94680.50;;;16.25;33.72
33191;BME280;19554;42.652;23.364;2023-02-19T12:16:50;94673.19;;;16.34;33.60
33191;BME280;19554;42.652;23.364;2023-02-19T12:22:26;94655.72;;;16.41;33.70
33191;BME280;19554;42.652;23.364;2023-02-19T12:44:20;94536.50;;;15.84;33.36
33191;BME280;19554;42.652;23.364;2023-02-19T12:46:51;94565.56;;;16.00;33.18
33191;BME280;19554;42.652;23.364;2023-02-19T12:49:30;94624.06;;;16.38;33.20
33191;BME280;19554;42.652;23.364;2023-02-19T12:52:24;94606.28;;;16.37;33.49
33191;BME280;19554;42.652;23.364;2023-02-19T12:54:53;94603.28;;;16.38;33.34
33191;BME280;19554;42.652;23.364;2023-02-19T12:57:26;94590.00;;;16.33;33.24
33191;BME280;19554;42.652;23.364;2023-02-19T13:02:49;94576.25;;;16.55;32.83
33191;BME280;19554;42.652;23.364;2023-02-19T13:10:38;94568.25;;;16.68;32.15
33191;BME280;19554;42.652;23.364;2023-02-19T13:13:11;94573.31;;;16.69;31.68
33191;BME280;19554;42.652;23.364;2023-02-19T13:15:45;94561.41;;;16.70;31.71
33191;BME280;19554;42.652;23.364;2023-02-19T13:18:17;94559.50;;;16.71;31.40
33191;BME280;19554;42.652;23.364;2023-02-19T13:20:45;94490.66;;;16.31;31.74
33191;BME280;19554;42.652;23.364;2023-02-19T13:34:16;94525.44;;;16.96;31.42
33191;BME280;19554;42.652;23.364;2023-02-19T13:36:46;94529.84;;;17.00;31.52
33191;BME280;19554;42.652;23.364;2023-02-19T13:39:14;94529.09;;;17.12;31.05
33191;BME280;19554;42.652;23.364;2023-02-19T13:41:47;94522.25;;;17.15;31.54
33191;BME280;19554;42.652;23.364;2023-02-19T13:44:19;94514.75;;;17.20;30.64
33191;BME280;19554;42.652;23.364;2023-02-19T13:46:47;94518.56;;;17.19;30.17
33191;BME280;19554;42.652;23.364;2023-02-19T13:52:00;94508.47;;;17.16;30.59
33191;BME280;19554;42.652;23.364;2023-02-19T13:54:33;94507.47;;;17.00;30.78
33191;BME280;19554;42.652;23.364;2023-02-19T13:59:51;94510.31;;;17.03;30.81
33191;BME280;19554;42.652;23.364;2023-02-19T14:14:39;94498.28;;;16.80;31.66
33191;BME280;19554;42.652;23.364;2023-02-19T14:19:58;94521.47;;;16.72;32.28
33191;BME280;19554;42.652;23.364;2023-02-19T14:33:33;94423.91;;;16.37;32.33
33191;BME280;19554;42.652;23.364;2023-02-19T14:36:04;94477.88;;;16.70;32.21
33191;BME280;19554;42.652;23.364;2023-02-19T14:38:37;94478.22;;;16.69;32.40
33191;BME280;19554;42.652;23.364;2023-02-19T14:41:05;94480.09;;;16.68;32.53
33191;BME280;19554;42.652;23.364;2023-02-19T14:43:32;94479.19;;;16.64;32.64
33191;BME280;19554;42.652;23.364;2023-02-19T14:46:29;94473.78;;;16.64;32.75
33191;BME280;19554;42.652;23.364;2023-02-19T14:49:04;94465.44;;;16.57;32.94
33191;BME280;19554;42.652;23.364;2023-02-19T14:51:38;94380.28;;;16.02;33.06
33191;BME280;19554;42.652;23.364;2023-02-19T14:54:17;94476.88;;;16.54;33.05
33191;BME280;19554;42.652;23.364;2023-02-19T14:56:48;94414.38;;;16.19;33.32
33191;BME280;19554;42.652;23.364;2023-02-19T15:01:43;94466.22;;;16.57;33.10
33191;BME280;19554;42.652;23.364;2023-02-19T15:04:24;94436.53;;;16.45;33.07
33191;BME280;19554;42.652;23.364;2023-02-19T15:06:50;94457.88;;;16.50;33.26
33191;BME280;19554;42.652;23.364;2023-02-19T15:09:19;94446.00;;;16.51;33.20
33191;BME280;19554;42.652;23.364;2023-02-19T15:11:45;94443.63;;;16.50;33.26
33191;BME280;19554;42.652;23.364;2023-02-19T15:14:19;94443.19;;;16.48;33.43
33191;BME280;19554;42.652;23.364;2023-02-19T15:16:46;94449.66;;;16.47;33.53
33191;BME280;19554;42.652;23.364;2023-02-19T15:19:13;94445.72;;;16.44;33.39
33191;BME280;19554;42.652;23.364;2023-02-19T15:21:44;94446.72;;;16.40;33.52
33191;BME280;19554;42.652;23.364;2023-02-19T15:24:13;94438.38;;;16.32;33.64
33191;BME280;19554;42.652;23.364;2023-02-19T15:26:42;94425.28;;;16.22;33.85
33191;BME280;19554;42.652;23.364;2023-02-19T15:29:14;94437.44;;;16.28;33.89
33191;BME280;19554;42.652;23.364;2023-02-19T15:31:52;94447.44;;;16.28;34.26
33191;BME280;19554;42.652;23.364;2023-02-19T15:36:44;94449.06;;;16.20;34.35
33191;BME280;19554;42.652;23.364;2023-02-19T15:39:24;94440.78;;;16.04;34.63
33191;BME280;19554;42.652;23.364;2023-02-19T15:41:53;94458.84;;;16.04;34.79
33191;BME280;19554;42.652;23.364;2023-02-19T15:44:27;94463.63;;;15.90;34.89